sensor_id;sensor_type;location;lat;lon;timestamp;P1;P2;P0
74880;PMS5003;63427;49.654;6.596;2023-06-14T00:00:36;18;18;
74880;PMS5003;63427;49.654;6.596;2023-06-14T00:03:02;20;19;
74880;PMS5003;63427;49.654;6.596;2023-06-14T00:05:27;18;18;
74880;PMS5003;63427;49.654;6.596;2023-06-14T00:07:53;17;17;
74880;PMS5003;63427;49.654;6.596;2023-06-14T00:10:18;22;22;
74880;PMS5003;63427;49.654;6.596;2023-06-14T00:12:44;19;19;
74880;PMS5003;63427;49.654;6.596;2023-06-14T00:15:09;20;20;
74880;PMS5003;63427;49.654;6.596;2023-06-14T00:17:34;18;18;
74880;PMS5003;63427;49.654;6.596;2023-06-14T00:19:59;19;19;
74880;PMS5003;63427;49.654;6.596;2023-06-14T00:22:25;20;19;
74880;PMS5003;63427;49.654;6.596;2023-06-14T00:24:50;21;20;
74880;PMS5003;63427;49.654;6.596;2023-06-14T00:27:16;20;19;
74880;PMS5003;63427;49.654;6.596;2023-06-14T00:29:41;21;19;
74880;PMS5003;63427;49.654;6.596;2023-06-14T00:32:07;22;22;
74880;PMS5003;63427;49.654;6.596;2023-06-14T00:34:33;18;17;
74880;PMS5003;63427;49.654;6.596;2023-06-14T00:36:59;22;21;
74880;PMS5003;63427;49.654;6.596;2023-06-14T00:39:24;20;20;
74880;PMS5003;63427;49.654;6.596;2023-06-14T00:41:49;22;22;
74880;PMS5003;63427;49.654;6.596;2023-06-14T00:44:15;22;22;
74880;PMS5003;63427;49.654;6.596;2023-06-14T00:46:40;19;19;
74880;PMS5003;63427;49.654;6.596;2023-06-14T00:49:06;22;22;
74880;PMS5003;63427;49.654;6.596;2023-06-14T00:51:32;21;21;
74880;PMS5003;63427;49.654;6.596;2023-06-14T00:53:57;21;21;
74880;PMS5003;63427;49.654;6.596;2023-06-14T00:56:23;19;19;
74880;PMS5003;63427;49.654;6.596;2023-06-14T00:58:49;22;21;
74880;PMS5003;63427;49.654;6.596;2023-06-14T01:01:14;21;21;
74880;PMS5003;63427;49.654;6.596;2023-06-14T01:03:40;19;19;
74880;PMS5003;63427;49.654;6.596;2023-06-14T01:06:07;20;20;
74880;PMS5003;63427;49.654;6.596;2023-06-14T01:08:31;18;18;
74880;PMS5003;63427;49.654;6.596;2023-06-14T01:10:58;18;18;
74880;PMS5003;63427;49.654;6.596;2023-06-14T01:13:23;20;20;
74880;PMS5003;63427;49.654;6.596;2023-06-14T01:15:47;23;23;
74880;PMS5003;63427;49.654;6.596;2023-06-14T01:18:12;18;18;
74880;PMS5003;63427;49.654;6.596;2023-06-14T01:20:37;20;20;
74880;PMS5003;63427;49.654;6.596;2023-06-14T01:23:03;19;19;
74880;PMS5003;63427;49.654;6.596;2023-06-14T01:25:28;20;20;
74880;PMS5003;63427;49.654;6.596;2023-06-14T01:27:55;19;18;
74880;PMS5003;63427;49.654;6.596;2023-06-14T01:30:20;19;19;
74880;PMS5003;63427;49.654;6.596;2023-06-14T01:32:45;18;18;
74880;PMS5003;63427;49.654;6.596;2023-06-14T01:35:10;19;19;
74880;PMS5003;63427;49.654;6.596;2023-06-14T01:37:36;20;20;
74880;PMS5003;63427;49.654;6.596;2023-06-14T01:40:02;22;22;
74880;PMS5003;63427;49.654;6.596;2023-06-14T01:42:27;22;21;
74880;PMS5003;63427;49.654;6.596;2023-06-14T01:44:53;20;19;
74880;PMS5003;63427;49.654;6.596;2023-06-14T01:47:19;19;19;
74880;PMS5003;63427;49.654;6.596;2023-06-14T01:49:45;21;21;
74880;PMS5003;63427;49.654;6.596;2023-06-14T01:52:10;22;21;
74880;PMS5003;63427;49.654;6.596;2023-06-14T01:54:35;24;24;
74880;PMS5003;63427;49.654;6.596;2023-06-14T01:57:01;18;18;
74880;PMS5003;63427;49.654;6.596;2023-06-14T01:59:26;22;22;
74880;PMS5003;63427;49.654;6.596;2023-06-14T02:01:52;21;21;
74880;PMS5003;63427;49.654;6.596;2023-06-14T02:04:17;20;19;
74880;PMS5003;63427;49.654;6.596;2023-06-14T02:06:42;20;20;
74880;PMS5003;63427;49.654;6.596;2023-06-14T02:09:08;21;21;
74880;PMS5003;63427;49.654;6.596;2023-06-14T02:11:34;22;22;
74880;PMS5003;63427;49.654;6.596;2023-06-14T02:13:59;21;21;
74880;PMS5003;63427;49.654;6.596;2023-06-14T02:16:25;19;19;
74880;PMS5003;63427;49.654;6.596;2023-06-14T02:18:50;20;20;
74880;PMS5003;63427;49.654;6.596;2023-06-14T02:21:16;19;19;
74880;PMS5003;63427;49.654;6.596;2023-06-14T02:23:41;17;17;
74880;PMS5003;63427;49.654;6.596;2023-06-14T02:26:07;22;22;
74880;PMS5003;63427;49.654;6.596;2023-06-14T02:28:37;24;23;
74880;PMS5003;63427;49.654;6.596;2023-06-14T02:30:58;22;22;
74880;PMS5003;63427;49.654;6.596;2023-06-14T02:33:24;26;24;
74880;PMS5003;63427;49.654;6.596;2023-06-14T02:35:49;24;23;
74880;PMS5003;63427;49.654;6.596;2023-06-14T02:38:15;21;21;
74880;PMS5003;63427;49.654;6.596;2023-06-14T02:40:40;20;20;
74880;PMS5003;63427;49.654;6.596;2023-06-14T02:43:05;20;20;
74880;PMS5003;63427;49.654;6.596;2023-06-14T02:45:31;25;25;
74880;PMS5003;63427;49.654;6.596;2023-06-14T02:47:57;22;22;
74880;PMS5003;63427;49.654;6.596;2023-06-14T02:50:22;24;24;
74880;PMS5003;63427;49.654;6.596;2023-06-14T02:52:47;20;20;
74880;PMS5003;63427;49.654;6.596;2023-06-14T02:55:12;20;20;
74880;PMS5003;63427;49.654;6.596;2023-06-14T02:57:37;21;21;
74880;PMS5003;63427;49.654;6.596;2023-06-14T03:00:03;25;25;
74880;PMS5003;63427;49.654;6.596;2023-06-14T03:02:28;26;25;
74880;PMS5003;63427;49.654;6.596;2023-06-14T03:04:54;23;23;
74880;PMS5003;63427;49.654;6.596;2023-06-14T03:07:19;26;26;
74880;PMS5003;63427;49.654;6.596;2023-06-14T03:09:45;22;22;
74880;PMS5003;63427;49.654;6.596;2023-06-14T03:12:10;20;20;
74880;PMS5003;63427;49.654;6.596;2023-06-14T03:14:36;24;23;
74880;PMS5003;63427;49.654;6.596;2023-06-14T03:17:01;26;25;
74880;PMS5003;63427;49.654;6.596;2023-06-14T03:19:26;24;23;
74880;PMS5003;63427;49.654;6.596;2023-06-14T03:21:52;25;23;
74880;PMS5003;63427;49.654;6.596;2023-06-14T03:24:18;26;25;
74880;PMS5003;63427;49.654;6.596;2023-06-14T03:26:43;24;24;
74880;PMS5003;63427;49.654;6.596;2023-06-14T03:29:09;24;24;
74880;PMS5003;63427;49.654;6.596;2023-06-14T03:31:35;27;26;
74880;PMS5003;63427;49.654;6.596;2023-06-14T03:34:00;30;29;
74880;PMS5003;63427;49.654;6.596;2023-06-14T03:36:26;21;20;
74880;PMS5003;63427;49.654;6.596;2023-06-14T03:38:51;24;23;
74880;PMS5003;63427;49.654;6.596;2023-06-14T03:41:16;24;24;
74880;PMS5003;63427;49.654;6.596;2023-06-14T03:43:42;23;23;
74880;PMS5003;63427;49.654;6.596;2023-06-14T03:46:07;24;24;
74880;PMS5003;63427;49.654;6.596;2023-06-14T03:48:33;21;21;
74880;PMS5003;63427;49.654;6.596;2023-06-14T03:50:59;24;24;
74880;PMS5003;63427;49.654;6.596;2023-06-14T03:53:24;24;23;
74880;PMS5003;63427;49.654;6.596;2023-06-14T03:55:49;22;21;
74880;PMS5003;63427;49.654;6.596;2023-06-14T03:58:15;25;25;
74880;PMS5003;63427;49.654;6.596;2023-06-14T04:00:40;23;21;
74880;PMS5003;63427;49.654;6.596;2023-06-14T04:03:06;24;23;
74880;PMS5003;63427;49.654;6.596;2023-06-14T04:05:32;24;24;
74880;PMS5003;63427;49.654;6.596;2023-06-14T04:07:57;23;23;
74880;PMS5003;63427;49.654;6.596;2023-06-14T04:10:22;26;25;
74880;PMS5003;63427;49.654;6.596;2023-06-14T04:12:48;23;23;
74880;PMS5003;63427;49.654;6.596;2023-06-14T04:15:14;24;24;
74880;PMS5003;63427;49.654;6.596;2023-06-14T04:17:39;28;28;
74880;PMS5003;63427;49.654;6.596;2023-06-14T04:20:05;22;22;
74880;PMS5003;63427;49.654;6.596;2023-06-14T04:22:30;28;27;
74880;PMS5003;63427;49.654;6.596;2023-06-14T04:24:55;26;26;
74880;PMS5003;63427;49.654;6.596;2023-06-14T04:27:21;23;22;
74880;PMS5003;63427;49.654;6.596;2023-06-14T04:29:46;28;28;
74880;PMS5003;63427;49.654;6.596;2023-06-14T04:32:11;24;23;
74880;PMS5003;63427;49.654;6.596;2023-06-14T04:34:37;22;21;
74880;PMS5003;63427;49.654;6.596;2023-06-14T04:37:03;21;21;
74880;PMS5003;63427;49.654;6.596;2023-06-14T04:39:28;24;23;
74880;PMS5003;63427;49.654;6.596;2023-06-14T04:41:53;24;24;
74880;PMS5003;63427;49.654;6.596;2023-06-14T04:44:19;24;24;
74880;PMS5003;63427;49.654;6.596;2023-06-14T04:46:44;27;27;
74880;PMS5003;63427;49.654;6.596;2023-06-14T04:49:09;23;23;
74880;PMS5003;63427;49.654;6.596;2023-06-14T04:51:35;26;26;
74880;PMS5003;63427;49.654;6.596;2023-06-14T04:54:00;24;23;
74880;PMS5003;63427;49.654;6.596;2023-06-14T04:56:27;22;22;
74880;PMS5003;63427;49.654;6.596;2023-06-14T04:58:51;20;20;
74880;PMS5003;63427;49.654;6.596;2023-06-14T05:01:17;24;23;
74880;PMS5003;63427;49.654;6.596;2023-06-14T05:03:42;22;21;
74880;PMS5003;63427;49.654;6.596;2023-06-14T05:06:07;24;24;
74880;PMS5003;63427;49.654;6.596;2023-06-14T05:08:33;19;19;
74880;PMS5003;63427;49.654;6.596;2023-06-14T05:10:58;20;20;
74880;PMS5003;63427;49.654;6.596;2023-06-14T05:13:23;29;29;
74880;PMS5003;63427;49.654;6.596;2023-06-14T05:15:49;21;21;
74880;PMS5003;63427;49.654;6.596;2023-06-14T05:18:14;23;22;
74880;PMS5003;63427;49.654;6.596;2023-06-14T05:20:40;24;22;
74880;PMS5003;63427;49.654;6.596;2023-06-14T05:23:06;24;24;
74880;PMS5003;63427;49.654;6.596;2023-06-14T05:25:31;28;28;
74880;PMS5003;63427;49.654;6.596;2023-06-14T05:27:56;25;25;
74880;PMS5003;63427;49.654;6.596;2023-06-14T05:30:22;29;28;
74880;PMS5003;63427;49.654;6.596;2023-06-14T05:32:48;26;26;
74880;PMS5003;63427;49.654;6.596;2023-06-14T05:35:14;19;19;
74880;PMS5003;63427;49.654;6.596;2023-06-14T05:37:39;27;26;
74880;PMS5003;63427;49.654;6.596;2023-06-14T05:40:05;26;25;
74880;PMS5003;63427;49.654;6.596;2023-06-14T05:42:29;21;21;
74880;PMS5003;63427;49.654;6.596;2023-06-14T05:44:55;25;25;
74880;PMS5003;63427;49.654;6.596;2023-06-14T05:47:20;27;26;
74880;PMS5003;63427;49.654;6.596;2023-06-14T05:49:46;25;25;
74880;PMS5003;63427;49.654;6.596;2023-06-14T05:52:11;24;24;
74880;PMS5003;63427;49.654;6.596;2023-06-14T05:54:36;24;23;
74880;PMS5003;63427;49.654;6.596;2023-06-14T05:57:02;24;24;
74880;PMS5003;63427;49.654;6.596;2023-06-14T05:59:27;24;24;
74880;PMS5003;63427;49.654;6.596;2023-06-14T06:01:52;29;28;
74880;PMS5003;63427;49.654;6.596;2023-06-14T06:04:17;26;26;
74880;PMS5003;63427;49.654;6.596;2023-06-14T06:06:43;24;23;
74880;PMS5003;63427;49.654;6.596;2023-06-14T06:09:09;27;27;
74880;PMS5003;63427;49.654;6.596;2023-06-14T06:11:33;25;25;
74880;PMS5003;63427;49.654;6.596;2023-06-14T06:13:59;24;24;
74880;PMS5003;63427;49.654;6.596;2023-06-14T06:16:24;21;20;
74880;PMS5003;63427;49.654;6.596;2023-06-14T06:18:49;28;28;
74880;PMS5003;63427;49.654;6.596;2023-06-14T06:21:14;24;24;
74880;PMS5003;63427;49.654;6.596;2023-06-14T06:23:39;25;24;
74880;PMS5003;63427;49.654;6.596;2023-06-14T06:26:05;22;21;
74880;PMS5003;63427;49.654;6.596;2023-06-14T06:28:30;24;24;
74880;PMS5003;63427;49.654;6.596;2023-06-14T06:30:56;23;22;
74880;PMS5003;63427;49.654;6.596;2023-06-14T06:33:21;25;25;
74880;PMS5003;63427;49.654;6.596;2023-06-14T06:35:46;22;22;
74880;PMS5003;63427;49.654;6.596;2023-06-14T06:38:12;24;24;
74880;PMS5003;63427;49.654;6.596;2023-06-14T06:40:38;25;25;
74880;PMS5003;63427;49.654;6.596;2023-06-14T06:43:03;22;22;
74880;PMS5003;63427;49.654;6.596;2023-06-14T06:45:29;21;21;
74880;PMS5003;63427;49.654;6.596;2023-06-14T06:47:54;19;19;
74880;PMS5003;63427;49.654;6.596;2023-06-14T06:50:20;20;20;
74880;PMS5003;63427;49.654;6.596;2023-06-14T06:52:45;21;20;
74880;PMS5003;63427;49.654;6.596;2023-06-14T06:55:10;22;21;
74880;PMS5003;63427;49.654;6.596;2023-06-14T06:57:36;21;21;
74880;PMS5003;63427;49.654;6.596;2023-06-14T07:00:01;23;23;
74880;PMS5003;63427;49.654;6.596;2023-06-14T07:02:26;20;20;
74880;PMS5003;63427;49.654;6.596;2023-06-14T07:04:51;22;22;
74880;PMS5003;63427;49.654;6.596;2023-06-14T07:07:17;20;20;
74880;PMS5003;63427;49.654;6.596;2023-06-14T07:09:42;21;21;
74880;PMS5003;63427;49.654;6.596;2023-06-14T07:12:08;24;24;
74880;PMS5003;63427;49.654;6.596;2023-06-14T07:14:33;23;22;
74880;PMS5003;63427;49.654;6.596;2023-06-14T07:16:58;22;21;
74880;PMS5003;63427;49.654;6.596;2023-06-14T07:19:24;20;19;
74880;PMS5003;63427;49.654;6.596;2023-06-14T07:21:49;20;20;
74880;PMS5003;63427;49.654;6.596;2023-06-14T07:24:14;23;23;
74880;PMS5003;63427;49.654;6.596;2023-06-14T07:26:40;20;20;
74880;PMS5003;63427;49.654;6.596;2023-06-14T07:29:05;18;17;
74880;PMS5003;63427;49.654;6.596;2023-06-14T07:31:30;21;21;
74880;PMS5003;63427;49.654;6.596;2023-06-14T07:33:55;21;20;
74880;PMS5003;63427;49.654;6.596;2023-06-14T07:36:20;16;16;
74880;PMS5003;63427;49.654;6.596;2023-06-14T07:38:46;22;21;
74880;PMS5003;63427;49.654;6.596;2023-06-14T07:41:11;20;20;
74880;PMS5003;63427;49.654;6.596;2023-06-14T07:43:37;16;16;
74880;PMS5003;63427;49.654;6.596;2023-06-14T07:46:02;20;20;
74880;PMS5003;63427;49.654;6.596;2023-06-14T07:48:32;18;18;
74880;PMS5003;63427;49.654;6.596;2023-06-14T07:50:52;18;18;
74880;PMS5003;63427;49.654;6.596;2023-06-14T07:53:18;22;21;
74880;PMS5003;63427;49.654;6.596;2023-06-14T07:55:43;18;18;
74880;PMS5003;63427;49.654;6.596;2023-06-14T07:58:09;19;19;
74880;PMS5003;63427;49.654;6.596;2023-06-14T08:00:35;21;21;
74880;PMS5003;63427;49.654;6.596;2023-06-14T08:03:00;21;20;
74880;PMS5003;63427;49.654;6.596;2023-06-14T08:05:26;19;19;
74880;PMS5003;63427;49.654;6.596;2023-06-14T08:07:52;21;21;
74880;PMS5003;63427;49.654;6.596;2023-06-14T08:10:17;21;21;
74880;PMS5003;63427;49.654;6.596;2023-06-14T08:12:43;18;17;
74880;PMS5003;63427;49.654;6.596;2023-06-14T08:15:09;19;19;
74880;PMS5003;63427;49.654;6.596;2023-06-14T08:17:34;19;19;
74880;PMS5003;63427;49.654;6.596;2023-06-14T08:20:00;18;18;
74880;PMS5003;63427;49.654;6.596;2023-06-14T08:22:25;22;21;
74880;PMS5003;63427;49.654;6.596;2023-06-14T08:24:50;23;22;
74880;PMS5003;63427;49.654;6.596;2023-06-14T08:27:15;22;22;
74880;PMS5003;63427;49.654;6.596;2023-06-14T08:29:41;21;21;
74880;PMS5003;63427;49.654;6.596;2023-06-14T08:32:07;17;17;
74880;PMS5003;63427;49.654;6.596;2023-06-14T08:34:33;21;20;
74880;PMS5003;63427;49.654;6.596;2023-06-14T08:37:00;21;21;
74880;PMS5003;63427;49.654;6.596;2023-06-14T08:39:24;19;19;
74880;PMS5003;63427;49.654;6.596;2023-06-14T08:41:50;18;18;
74880;PMS5003;63427;49.654;6.596;2023-06-14T08:44:15;20;20;
74880;PMS5003;63427;49.654;6.596;2023-06-14T08:46:40;22;20;
74880;PMS5003;63427;49.654;6.596;2023-06-14T08:49:06;19;18;
74880;PMS5003;63427;49.654;6.596;2023-06-14T08:51:31;16;16;
74880;PMS5003;63427;49.654;6.596;2023-06-14T08:53:57;23;21;
74880;PMS5003;63427;49.654;6.596;2023-06-14T08:56:23;18;17;
74880;PMS5003;63427;49.654;6.596;2023-06-14T08:58:47;19;18;
74880;PMS5003;63427;49.654;6.596;2023-06-14T09:01:13;18;18;
74880;PMS5003;63427;49.654;6.596;2023-06-14T09:03:39;19;19;
74880;PMS5003;63427;49.654;6.596;2023-06-14T09:06:04;19;19;
74880;PMS5003;63427;49.654;6.596;2023-06-14T09:08:29;17;17;
74880;PMS5003;63427;49.654;6.596;2023-06-14T09:10:55;18;18;
74880;PMS5003;63427;49.654;6.596;2023-06-14T09:13:20;18;17;
74880;PMS5003;63427;49.654;6.596;2023-06-14T09:15:46;19;18;
74880;PMS5003;63427;49.654;6.596;2023-06-14T09:18:11;20;20;
74880;PMS5003;63427;49.654;6.596;2023-06-14T09:20:37;19;19;
74880;PMS5003;63427;49.654;6.596;2023-06-14T09:23:03;18;18;
74880;PMS5003;63427;49.654;6.596;2023-06-14T09:25:28;16;16;
74880;PMS5003;63427;49.654;6.596;2023-06-14T09:27:54;19;19;
74880;PMS5003;63427;49.654;6.596;2023-06-14T09:30:20;22;21;
74880;PMS5003;63427;49.654;6.596;2023-06-14T09:32:45;19;18;
74880;PMS5003;63427;49.654;6.596;2023-06-14T09:35:10;16;16;
74880;PMS5003;63427;49.654;6.596;2023-06-14T09:37:36;18;18;
74880;PMS5003;63427;49.654;6.596;2023-06-14T09:40:02;17;17;
74880;PMS5003;63427;49.654;6.596;2023-06-14T09:42:27;18;17;
74880;PMS5003;63427;49.654;6.596;2023-06-14T09:44:53;19;19;
74880;PMS5003;63427;49.654;6.596;2023-06-14T09:47:18;20;19;
74880;PMS5003;63427;49.654;6.596;2023-06-14T09:49:44;15;15;
74880;PMS5003;63427;49.654;6.596;2023-06-14T09:52:10;18;18;
74880;PMS5003;63427;49.654;6.596;2023-06-14T09:54:35;14;14;
74880;PMS5003;63427;49.654;6.596;2023-06-14T09:57:00;16;16;
74880;PMS5003;63427;49.654;6.596;2023-06-14T09:59:26;21;21;
74880;PMS5003;63427;49.654;6.596;2023-06-14T10:01:51;17;16;
74880;PMS5003;63427;49.654;6.596;2023-06-14T10:04:18;16;16;
74880;PMS5003;63427;49.654;6.596;2023-06-14T10:06:43;14;14;
74880;PMS5003;63427;49.654;6.596;2023-06-14T10:09:08;14;14;
74880;PMS5003;63427;49.654;6.596;2023-06-14T10:11:33;17;17;
74880;PMS5003;63427;49.654;6.596;2023-06-14T10:13:59;15;15;
74880;PMS5003;63427;49.654;6.596;2023-06-14T10:16:27;13;13;
74880;PMS5003;63427;49.654;6.596;2023-06-14T10:18:51;13;13;
74880;PMS5003;63427;49.654;6.596;2023-06-14T10:21:18;14;14;
74880;PMS5003;63427;49.654;6.596;2023-06-14T10:23:41;14;14;
74880;PMS5003;63427;49.654;6.596;2023-06-14T10:26:07;15;15;
74880;PMS5003;63427;49.654;6.596;2023-06-14T10:28:32;13;12;
74880;PMS5003;63427;49.654;6.596;2023-06-14T10:31:04;15;15;
74880;PMS5003;63427;49.654;6.596;2023-06-14T10:33:23;13;13;
74880;PMS5003;63427;49.654;6.596;2023-06-14T10:35:49;12;12;
74880;PMS5003;63427;49.654;6.596;2023-06-14T10:38:14;12;12;
74880;PMS5003;63427;49.654;6.596;2023-06-14T10:40:40;14;14;
74880;PMS5003;63427;49.654;6.596;2023-06-14T10:45:31;11;11;
74880;PMS5003;63427;49.654;6.596;2023-06-14T10:47:57;12;12;
74880;PMS5003;63427;49.654;6.596;2023-06-14T10:52:47;12;12;
74880;PMS5003;63427;49.654;6.596;2023-06-14T10:55:15;12;12;
74880;PMS5003;63427;49.654;6.596;2023-06-14T10:57:39;12;12;
74880;PMS5003;63427;49.654;6.596;2023-06-14T11:00:05;13;13;
74880;PMS5003;63427;49.654;6.596;2023-06-14T11:04:55;11;11;
74880;PMS5003;63427;49.654;6.596;2023-06-14T11:07:26;13;13;
74880;PMS5003;63427;49.654;6.596;2023-06-14T11:12:11;11;11;
74880;PMS5003;63427;49.654;6.596;2023-06-14T11:14:37;12;12;
74880;PMS5003;63427;49.654;6.596;2023-06-14T11:17:02;12;12;
74880;PMS5003;63427;49.654;6.596;2023-06-14T11:19:27;11;11;
74880;PMS5003;63427;49.654;6.596;2023-06-14T11:21:53;11;11;
74880;PMS5003;63427;49.654;6.596;2023-06-14T11:24:19;12;12;
74880;PMS5003;63427;49.654;6.596;2023-06-14T11:26:44;12;12;
74880;PMS5003;63427;49.654;6.596;2023-06-14T11:29:09;14;13;
74880;PMS5003;63427;49.654;6.596;2023-06-14T11:31:42;9;9;
74880;PMS5003;63427;49.654;6.596;2023-06-14T11:34:00;11;11;
74880;PMS5003;63427;49.654;6.596;2023-06-14T11:36:26;11;11;
74880;PMS5003;63427;49.654;6.596;2023-06-14T11:38:51;10;10;
74880;PMS5003;63427;49.654;6.596;2023-06-14T11:41:17;13;13;
74880;PMS5003;63427;49.654;6.596;2023-06-14T11:43:42;12;12;
74880;PMS5003;63427;49.654;6.596;2023-06-14T11:46:12;11;11;
74880;PMS5003;63427;49.654;6.596;2023-06-14T11:48:36;12;12;
74880;PMS5003;63427;49.654;6.596;2023-06-14T11:50:58;13;13;
74880;PMS5003;63427;49.654;6.596;2023-06-14T11:53:23;12;12;
74880;PMS5003;63427;49.654;6.596;2023-06-14T11:55:49;11;11;
74880;PMS5003;63427;49.654;6.596;2023-06-14T11:58:14;11;11;
74880;PMS5003;63427;49.654;6.596;2023-06-14T12:00:40;11;11;
74880;PMS5003;63427;49.654;6.596;2023-06-14T12:03:06;11;11;
74880;PMS5003;63427;49.654;6.596;2023-06-14T12:05:32;12;12;
74880;PMS5003;63427;49.654;6.596;2023-06-14T12:08:00;10;10;
74880;PMS5003;63427;49.654;6.596;2023-06-14T12:10:21;11;11;
74880;PMS5003;63427;49.654;6.596;2023-06-14T12:12:47;10;10;
74880;PMS5003;63427;49.654;6.596;2023-06-14T12:15:12;11;10;
74880;PMS5003;63427;49.654;6.596;2023-06-14T12:17:38;10;10;
74880;PMS5003;63427;49.654;6.596;2023-06-14T12:20:05;10;10;
74880;PMS5003;63427;49.654;6.596;2023-06-14T12:22:28;10;10;
74880;PMS5003;63427;49.654;6.596;2023-06-14T12:24:54;9;9;
74880;PMS5003;63427;49.654;6.596;2023-06-14T12:27:21;10;10;
74880;PMS5003;63427;49.654;6.596;2023-06-14T12:29:44;8;8;
74880;PMS5003;63427;49.654;6.596;2023-06-14T12:32:10;10;10;
74880;PMS5003;63427;49.654;6.596;2023-06-14T12:34:35;9;9;
74880;PMS5003;63427;49.654;6.596;2023-06-14T12:37:01;7;7;
74880;PMS5003;63427;49.654;6.596;2023-06-14T12:39:26;9;9;
74880;PMS5003;63427;49.654;6.596;2023-06-14T12:41:51;10;9;
74880;PMS5003;63427;49.654;6.596;2023-06-14T12:44:17;9;8;
74880;PMS5003;63427;49.654;6.596;2023-06-14T12:46:42;9;9;
74880;PMS5003;63427;49.654;6.596;2023-06-14T12:49:08;9;9;
74880;PMS5003;63427;49.654;6.596;2023-06-14T12:51:33;9;8;
74880;PMS5003;63427;49.654;6.596;2023-06-14T12:53:58;9;9;
74880;PMS5003;63427;49.654;6.596;2023-06-14T12:56:24;10;10;
74880;PMS5003;63427;49.654;6.596;2023-06-14T12:58:49;8;8;
74880;PMS5003;63427;49.654;6.596;2023-06-14T13:01:15;8;8;
74880;PMS5003;63427;49.654;6.596;2023-06-14T13:03:40;8;8;
74880;PMS5003;63427;49.654;6.596;2023-06-14T13:06:05;7;7;
74880;PMS5003;63427;49.654;6.596;2023-06-14T13:08:31;9;9;
74880;PMS5003;63427;49.654;6.596;2023-06-14T13:10:56;9;9;
74880;PMS5003;63427;49.654;6.596;2023-06-14T13:13:22;8;8;
74880;PMS5003;63427;49.654;6.596;2023-06-14T13:15:47;7;7;
74880;PMS5003;63427;49.654;6.596;2023-06-14T13:18:13;10;9;
74880;PMS5003;63427;49.654;6.596;2023-06-14T13:20:38;8;8;
74880;PMS5003;63427;49.654;6.596;2023-06-14T13:23:04;11;10;
74880;PMS5003;63427;49.654;6.596;2023-06-14T13:25:29;8;8;
74880;PMS5003;63427;49.654;6.596;2023-06-14T13:27:54;8;8;
74880;PMS5003;63427;49.654;6.596;2023-06-14T13:30:20;8;8;
74880;PMS5003;63427;49.654;6.596;2023-06-14T13:32:47;7;7;
74880;PMS5003;63427;49.654;6.596;2023-06-14T13:35:11;7;7;
74880;PMS5003;63427;49.654;6.596;2023-06-14T13:37:36;8;8;
74880;PMS5003;63427;49.654;6.596;2023-06-14T13:40:02;8;8;
74880;PMS5003;63427;49.654;6.596;2023-06-14T13:42:27;7;7;
74880;PMS5003;63427;49.654;6.596;2023-06-14T13:44:53;8;8;
74880;PMS5003;63427;49.654;6.596;2023-06-14T13:47:18;8;8;
74880;PMS5003;63427;49.654;6.596;2023-06-14T13:49:43;9;9;
74880;PMS5003;63427;49.654;6.596;2023-06-14T13:52:09;8;8;
74880;PMS5003;63427;49.654;6.596;2023-06-14T13:54:34;8;8;
74880;PMS5003;63427;49.654;6.596;2023-06-14T13:57:00;9;8;
74880;PMS5003;63427;49.654;6.596;2023-06-14T13:59:25;7;7;
74880;PMS5003;63427;49.654;6.596;2023-06-14T14:01:51;7;7;
74880;PMS5003;63427;49.654;6.596;2023-06-14T14:04:16;8;7;
74880;PMS5003;63427;49.654;6.596;2023-06-14T14:06:42;8;8;
74880;PMS5003;63427;49.654;6.596;2023-06-14T14:09:08;8;8;
74880;PMS5003;63427;49.654;6.596;2023-06-14T14:11:32;9;9;
74880;PMS5003;63427;49.654;6.596;2023-06-14T14:13:58;7;7;
74880;PMS5003;63427;49.654;6.596;2023-06-14T14:16:23;7;6;
74880;PMS5003;63427;49.654;6.596;2023-06-14T14:18:48;7;7;
74880;PMS5003;63427;49.654;6.596;2023-06-14T14:21:14;5;5;
74880;PMS5003;63427;49.654;6.596;2023-06-14T14:23:39;6;6;
74880;PMS5003;63427;49.654;6.596;2023-06-14T14:26:05;7;7;
74880;PMS5003;63427;49.654;6.596;2023-06-14T14:28:30;7;7;
74880;PMS5003;63427;49.654;6.596;2023-06-14T14:30:56;8;8;
74880;PMS5003;63427;49.654;6.596;2023-06-14T14:33:21;7;7;
74880;PMS5003;63427;49.654;6.596;2023-06-14T14:35:47;7;7;
74880;PMS5003;63427;49.654;6.596;2023-06-14T14:38:12;7;7;
74880;PMS5003;63427;49.654;6.596;2023-06-14T14:40:38;7;7;
74880;PMS5003;63427;49.654;6.596;2023-06-14T14:43:02;7;7;
74880;PMS5003;63427;49.654;6.596;2023-06-14T14:45:28;6;6;
74880;PMS5003;63427;49.654;6.596;2023-06-14T14:47:53;6;6;
74880;PMS5003;63427;49.654;6.596;2023-06-14T14:50:19;6;6;
74880;PMS5003;63427;49.654;6.596;2023-06-14T14:52:44;6;6;
74880;PMS5003;63427;49.654;6.596;2023-06-14T14:55:10;6;6;
74880;PMS5003;63427;49.654;6.596;2023-06-14T14:57:35;7;7;
74880;PMS5003;63427;49.654;6.596;2023-06-14T15:00:00;6;6;
74880;PMS5003;63427;49.654;6.596;2023-06-14T15:02:26;6;6;
74880;PMS5003;63427;49.654;6.596;2023-06-14T15:04:52;7;7;
74880;PMS5003;63427;49.654;6.596;2023-06-14T15:07:17;7;7;
74880;PMS5003;63427;49.654;6.596;2023-06-14T15:09:42;7;7;
74880;PMS5003;63427;49.654;6.596;2023-06-14T15:12:09;6;6;
74880;PMS5003;63427;49.654;6.596;2023-06-14T15:14:33;6;6;
74880;PMS5003;63427;49.654;6.596;2023-06-14T15:16:59;7;7;
74880;PMS5003;63427;49.654;6.596;2023-06-14T15:19:24;8;8;
74880;PMS5003;63427;49.654;6.596;2023-06-14T15:21:50;6;6;
74880;PMS5003;63427;49.654;6.596;2023-06-14T15:24:15;7;7;
74880;PMS5003;63427;49.654;6.596;2023-06-14T15:26:41;5;5;
74880;PMS5003;63427;49.654;6.596;2023-06-14T15:29:06;5;5;
74880;PMS5003;63427;49.654;6.596;2023-06-14T15:31:32;7;6;
74880;PMS5003;63427;49.654;6.596;2023-06-14T15:33:57;8;7;
74880;PMS5003;63427;49.654;6.596;2023-06-14T15:36:22;6;6;
74880;PMS5003;63427;49.654;6.596;2023-06-14T15:38:48;6;6;
74880;PMS5003;63427;49.654;6.596;2023-06-14T15:41:13;8;8;
74880;PMS5003;63427;49.654;6.596;2023-06-14T15:43:39;6;6;
74880;PMS5003;63427;49.654;6.596;2023-06-14T15:46:04;6;6;
74880;PMS5003;63427;49.654;6.596;2023-06-14T15:48:30;7;7;
74880;PMS5003;63427;49.654;6.596;2023-06-14T15:50:55;7;7;
74880;PMS5003;63427;49.654;6.596;2023-06-14T15:53:21;8;8;
74880;PMS5003;63427;49.654;6.596;2023-06-14T15:55:46;6;6;
74880;PMS5003;63427;49.654;6.596;2023-06-14T15:58:12;7;7;
74880;PMS5003;63427;49.654;6.596;2023-06-14T16:00:37;8;8;
74880;PMS5003;63427;49.654;6.596;2023-06-14T16:03:03;6;6;
74880;PMS5003;63427;49.654;6.596;2023-06-14T16:05:28;7;7;
74880;PMS5003;63427;49.654;6.596;2023-06-14T16:07:54;6;6;
74880;PMS5003;63427;49.654;6.596;2023-06-14T16:10:19;7;7;
74880;PMS5003;63427;49.654;6.596;2023-06-14T16:12:45;7;7;
74880;PMS5003;63427;49.654;6.596;2023-06-14T16:15:10;6;6;
74880;PMS5003;63427;49.654;6.596;2023-06-14T16:17:36;8;7;
74880;PMS5003;63427;49.654;6.596;2023-06-14T16:20:01;6;6;
74880;PMS5003;63427;49.654;6.596;2023-06-14T16:22:27;5;5;